KFHU/FHU METAR and TAF weather

Enter ICAO airport designator
Station Type Date Time Source
KFHU METAR 2024/04/15 09:55 UTC NOAA

KFHU 150955Z AUTO 29006KT 10SM CLR 12/M03 A2999 RMK AO2 SLP104 T01151027 $


Station Type Date Time Source
KFHU Decoded METAR 2024/04/15 09:55 UTC NOAA

Fort Huachuca, Libby AAF Ft Huachuca, AZ, United States (KFHU) 46-98N 110-20W
Apr 15, 2024 - 05:55 AM EDT / 2024.04.15 0955 UTC
Wind: from the WNW (290 degrees) at 7 MPH (6 KT):0
Visibility: 10 mile(s):0
Sky conditions: clear
Temperature: 52.7 F (11.5 C)
Dew Point: 27.1 F (-2.7 C)
Relative Humidity: 36%
Pressure (altimeter): 29.99 in. Hg (1015 hPa)
ob: KFHU 150955Z AUTO 29006KT 10SM CLR 12/M03 A2999 RMK AO2 SLP104 T01151027
cycle: 10

Station Type Date Time Source
KFHU TAF 2024/04/15 06:59 UTC NOAA